Time,TemperatureF,DewpointF,PressureIn,WindDirection,WindDirectionDegrees,WindSpeedMPH,WindSpeedGustMPH,Humidity,HourlyPrecipIn,Conditions,Clouds,dailyrainin,SoftwareType,DateUTC
2013-01-29 00:00:00,33.7,31.1,30.01,WSW,254,4.0,9.0,90,0.00,,---,0.14,VWS V14.01,2013-01-29 05:00:00,
2013-01-29 00:01:00,33.8,31.2,30.01,WSW,252,3.0,9.0,90,0.00,,---,0.14,VWS V14.01,2013-01-29 05:01:00,
2013-01-29 00:03:00,33.7,31.1,30.01,WSW,246,3.0,7.0,90,0.00,,---,0.00,VWS V14.01,2013-01-29 05:03:00,
2013-01-29 00:04:00,33.7,31.1,30.01,WSW,247,2.0,7.0,90,0.00,,---,0.00,VWS V14.01,2013-01-29 05:04:00,
2013-01-29 00:09:00,33.7,31.1,30.02,West,281,6.0,9.0,90,0.00,,---,0.00,VWS V14.01,2013-01-29 05:09:00,
2013-01-29 00:14:00,33.8,31.2,30.02,WNW,284,3.0,9.0,90,0.00,,---,0.00,VWS V14.01,2013-01-29 05:14:00,
2013-01-29 00:15:00,33.8,31.2,30.02,West,272,3.0,9.0,90,0.00,,---,0.00,VWS V14.01,2013-01-29 05:15:00,
2013-01-29 00:19:00,33.8,31.2,30.02,WSW,257,4.0,6.0,90,0.00,,---,0.00,VWS V14.01,2013-01-29 05:19:00,
2013-01-29 00:24:00,33.8,31.2,30.02,West,281,5.0,6.0,90,0.00,,---,0.00,VWS V14.01,2013-01-29 05:24:00,
2013-01-29 00:29:00,33.9,31.3,30.01,WNW,298,3.0,6.0,90,0.00,,---,0.00,VWS V14.01,2013-01-29 05:29:00,
2013-01-29 00:30:00,33.9,31.3,30.01,WNW,298,3.0,6.0,90,0.00,,---,0.00,VWS V14.01,2013-01-29 05:30:00,
2013-01-29 00:34:00,34.0,31.1,30.01,WNW,285,0.0,5.0,89,0.00,,---,0.00,VWS V14.01,2013-01-29 05:34:00,
2013-01-29 00:39:00,34.1,31.2,30.00,West,269,3.0,5.0,89,0.00,,---,0.00,VWS V14.01,2013-01-29 05:39:00,
2013-01-29 00:44:00,34.1,31.2,30.00,WSW,237,3.0,6.0,89,0.00,,---,0.00,VWS V14.01,2013-01-29 05:44:00,
2013-01-29 00:45:00,34.2,31.3,30.00,WSW,242,5.0,6.0,89,0.00,,---,0.00,VWS V14.01,2013-01-29 05:45:00,
2013-01-29 00:49:00,34.2,31.3,30.01,NNW,334,4.0,6.0,89,0.00,,---,0.00,VWS V14.01,2013-01-29 05:49:00,
2013-01-29 00:54:00,34.3,31.7,30.01,NNW,329,3.0,6.0,90,0.00,,---,0.00,VWS V14.01,2013-01-29 05:54:00,
2013-01-29 00:59:00,34.4,31.8,30.00,NW,326,2.0,6.0,90,0.00,,---,0.00,VWS V14.01,2013-01-29 05:59:00,
2013-01-29 01:00:00,34.4,31.8,30.00,NW,326,2.0,6.0,90,0.00,,---,0.00,VWS V14.01,2013-01-29 06:00:00,
2013-01-29 01:04:00,34.4,31.8,30.00,NW,326,2.0,4.0,90,0.00,,---,0.00,VWS V14.01,2013-01-29 06:04:00,
2013-01-29 01:09:00,34.4,31.8,30.01,NW,316,3.0,6.0,90,0.00,,---,0.00,VWS V14.01,2013-01-29 06:09:00,
2013-01-29 01:14:00,34.4,31.8,30.01,NW,316,1.0,6.0,90,0.00,,---,0.00,VWS V14.01,2013-01-29 06:14:00,
2013-01-29 01:15:00,34.4,31.8,30.01,NW,316,1.0,6.0,90,0.00,,---,0.00,VWS V14.01,2013-01-29 06:15:00,
2013-01-29 01:20:00,34.4,31.8,30.01,NW,316,1.0,4.0,90,0.00,,---,0.00,VWS V14.01,2013-01-29 06:20:00,
2013-01-29 01:25:00,34.4,31.8,30.01,NW,316,2.0,5.0,90,0.00,,---,0.00,VWS V14.01,2013-01-29 06:25:00,
2013-01-29 01:30:00,34.4,31.8,30.01,WNW,302,3.0,5.0,90,0.00,,---,0.00,VWS V14.01,2013-01-29 06:30:00,
2013-01-29 01:35:00,34.4,31.8,30.01,WNW,303,2.0,5.0,90,0.00,,---,0.00,VWS V14.01,2013-01-29 06:35:00,
2013-01-29 01:40:00,34.5,31.9,30.01,WNW,300,1.0,5.0,90,0.00,,---,0.00,VWS V14.01,2013-01-29 06:40:00,
2013-01-29 01:45:00,34.4,31.5,30.01,NW,305,4.0,6.0,89,0.00,,---,0.00,VWS V14.01,2013-01-29 06:45:00,
2013-01-29 01:50:00,34.5,31.6,30.02,NW,305,4.0,5.0,89,0.00,,---,0.00,VWS V14.01,2013-01-29 06:50:00,
2013-01-29 01:55:00,34.6,31.7,30.02,NW,307,4.0,7.0,89,0.00,,---,0.00,VWS V14.01,2013-01-29 06:55:00,
2013-01-29 02:00:00,34.6,31.7,30.02,NW,309,2.0,7.0,89,0.00,,---,0.00,VWS V14.01,2013-01-29 07:00:00,
2013-01-29 02:05:00,34.6,31.7,30.02,WNW,300,1.0,6.0,89,0.00,,---,0.00,VWS V14.01,2013-01-29 07:05:00,
2013-01-29 02:10:00,34.7,31.8,30.02,WNW,298,3.0,6.0,89,0.00,,---,0.00,VWS V14.01,2013-01-29 07:10:00,
2013-01-29 02:15:00,34.7,31.8,30.02,WNW,298,3.0,6.0,89,0.00,,---,0.00,VWS V14.01,2013-01-29 07:15:00,
2013-01-29 02:20:00,34.8,31.9,30.02,WNW,298,3.0,4.0,89,0.00,,---,0.00,VWS V14.01,2013-01-29 07:20:00,
2013-01-29 02:25:00,34.8,31.9,30.01,WNW,298,3.0,4.0,89,0.00,,---,0.00,VWS V14.01,2013-01-29 07:25:00,
2013-01-29 02:30:00,34.8,31.9,30.01,WNW,298,3.0,4.0,89,0.00,,---,0.00,VWS V14.01,2013-01-29 07:30:00,
2013-01-29 02:35:00,34.9,32.0,30.01,WNW,298,3.0,3.0,89,0.00,,---,0.00,VWS V14.01,2013-01-29 07:35:00,
2013-01-29 02:40:00,34.9,32.0,30.01,WNW,298,3.0,4.0,89,0.00,,---,0.00,VWS V14.01,2013-01-29 07:40:00,
2013-01-29 02:45:00,34.9,32.0,30.01,WNW,298,1.0,4.0,89,0.00,,---,0.00,VWS V14.01,2013-01-29 07:45:00,
2013-01-29 02:50:00,34.9,32.0,30.01,WNW,298,2.0,5.0,89,0.00,,---,0.00,VWS V14.01,2013-01-29 07:50:00,
2013-01-29 02:55:00,35.0,32.1,30.01,WNW,298,3.0,5.0,89,0.00,,---,0.00,VWS V14.01,2013-01-29 07:55:00,
2013-01-29 03:00:00,35.0,32.1,30.01,WNW,296,4.0,5.0,89,0.00,,---,0.00,VWS V14.01,2013-01-29 08:00:00,
2013-01-29 03:06:00,35.0,32.1,30.01,WNW,295,3.0,4.0,89,0.00,,---,0.00,VWS V14.01,2013-01-29 08:06:00,
2013-01-29 03:11:00,35.0,32.1,30.01,WNW,295,3.0,4.0,89,0.00,,---,0.00,VWS V14.01,2013-01-29 08:11:00,
2013-01-29 03:15:00,35.1,32.2,30.01,WNW,295,0.0,4.0,89,0.00,,---,0.00,VWS V14.01,2013-01-29 08:15:00,
2013-01-29 03:16:00,35.1,32.2,30.01,WNW,295,0.0,4.0,89,0.00,,---,0.00,VWS V14.01,2013-01-29 08:16:00,
2013-01-29 03:21:00,35.2,32.3,30.01,WNW,295,2.0,4.0,89,0.00,,---,0.00,VWS V14.01,2013-01-29 08:21:00,
2013-01-29 03:26:00,35.4,32.5,30.01,West,269,0.0,5.0,89,0.00,,---,0.00,VWS V14.01,2013-01-29 08:26:00,
2013-01-29 03:30:00,35.5,32.6,30.01,West,269,0.0,5.0,89,0.00,,---,0.00,VWS V14.01,2013-01-29 08:30:00,
2013-01-29 03:31:00,35.5,32.6,30.01,West,269,0.0,0.0,89,0.00,,---,0.00,VWS V14.01,2013-01-29 08:31:00,
2013-01-29 03:36:00,35.7,32.8,30.01,West,269,3.0,4.0,89,0.00,,---,0.00,VWS V14.01,2013-01-29 08:36:00,
2013-01-29 03:41:00,35.8,32.9,30.01,WSW,254,0.0,6.0,89,0.00,,---,0.00,VWS V14.01,2013-01-29 08:41:00,
2013-01-29 03:45:00,35.8,32.9,30.01,WSW,254,2.0,6.0,89,0.00,,---,0.00,VWS V14.01,2013-01-29 08:45:00,
2013-01-29 03:46:00,35.8,32.9,30.01,WSW,254,2.0,3.0,89,0.00,,---,0.00,VWS V14.01,2013-01-29 08:46:00,
2013-01-29 03:51:00,35.7,32.8,30.01,WSW,239,4.0,6.0,89,0.00,,---,0.00,VWS V14.01,2013-01-29 08:51:00,
2013-01-29 03:56:00,35.7,32.8,30.01,WSW,241,1.0,6.0,89,0.00,,---,0.00,VWS V14.01,2013-01-29 08:56:00,
2013-01-29 04:00:00,35.7,32.8,30.02,SW,234,2.0,6.0,89,0.00,,---,0.00,VWS V14.01,2013-01-29 09:00:00,
2013-01-29 04:01:00,35.8,32.9,30.02,SW,235,2.0,3.0,89,0.00,,---,0.00,VWS V14.01,2013-01-29 09:01:00,
2013-01-29 04:06:00,35.8,32.9,30.02,WSW,237,0.0,4.0,89,0.00,,---,0.00,VWS V14.01,2013-01-29 09:06:00,
2013-01-29 04:11:00,35.8,32.9,30.02,SW,232,3.0,4.0,89,0.00,,---,0.00,VWS V14.01,2013-01-29 09:11:00,
2013-01-29 04:15:00,35.9,33.0,30.02,WSW,244,2.0,4.0,89,0.00,,---,0.00,VWS V14.01,2013-01-29 09:15:00,
2013-01-29 04:16:00,35.9,33.0,30.02,WSW,244,1.0,2.0,89,0.00,,---,0.00,VWS V14.01,2013-01-29 09:16:00,
2013-01-29 04:21:00,36.0,33.1,30.02,WSW,244,0.0,3.0,89,0.00,,---,0.00,VWS V14.01,2013-01-29 09:21:00,
2013-01-29 04:26:00,36.1,33.2,30.02,WSW,244,0.0,3.0,89,0.00,,---,0.00,VWS V14.01,2013-01-29 09:26:00,
2013-01-29 04:30:00,36.1,33.2,30.02,WSW,244,3.0,3.0,89,0.00,,---,0.00,VWS V14.01,2013-01-29 09:30:00,
2013-01-29 04:31:00,36.1,33.2,30.02,WSW,244,2.0,3.0,89,0.00,,---,0.00,VWS V14.01,2013-01-29 09:31:00,
2013-01-29 04:36:00,36.2,33.3,30.02,WSW,244,0.0,3.0,89,0.00,,---,0.00,VWS V14.01,2013-01-29 09:36:00,
2013-01-29 04:41:00,36.2,33.3,30.02,WSW,244,2.0,5.0,89,0.00,,---,0.00,VWS V14.01,2013-01-29 09:41:00,
2013-01-29 04:45:00,36.2,33.3,30.02,WSW,244,1.0,5.0,89,0.00,,---,0.00,VWS V14.01,2013-01-29 09:45:00,
2013-01-29 04:46:00,36.2,33.3,30.02,WSW,244,2.0,2.0,89,0.00,,---,0.00,VWS V14.01,2013-01-29 09:46:00,
2013-01-29 04:52:00,36.3,33.4,30.03,WSW,244,1.0,3.0,89,0.00,,---,0.00,VWS V14.01,2013-01-29 09:52:00,
2013-01-29 04:57:00,36.3,33.4,30.03,WSW,244,2.0,4.0,89,0.00,,---,0.00,VWS V14.01,2013-01-29 09:57:00,
2013-01-29 05:00:00,36.4,33.5,30.03,WSW,244,0.0,4.0,89,0.00,,---,0.00,VWS V14.01,2013-01-29 10:00:00,
2013-01-29 05:02:00,36.4,33.5,30.03,WSW,244,0.0,1.0,89,0.00,,---,0.00,VWS V14.01,2013-01-29 10:02:00,
2013-01-29 05:07:00,36.5,33.6,30.04,WSW,244,2.0,3.0,89,0.00,,---,0.00,VWS V14.01,2013-01-29 10:07:00,
2013-01-29 05:12:00,36.5,33.6,30.04,WSW,244,1.0,3.0,89,0.00,,---,0.00,VWS V14.01,2013-01-29 10:12:00,
2013-01-29 05:15:00,36.6,33.7,30.04,WSW,244,0.0,3.0,89,0.00,,---,0.00,VWS V14.01,2013-01-29 10:15:00,
2013-01-29 05:17:00,36.6,33.7,30.05,WSW,244,0.0,0.0,89,0.00,,---,0.00,VWS V14.01,2013-01-29 10:17:00,
2013-01-29 05:22:00,36.8,33.9,30.05,WSW,244,0.0,3.0,89,0.00,,---,0.00,VWS V14.01,2013-01-29 10:22:00,
2013-01-29 05:27:00,36.8,33.9,30.05,WSW,244,0.0,3.0,89,0.00,,---,0.00,VWS V14.01,2013-01-29 10:27:00,
2013-01-29 05:30:00,36.8,33.9,30.05,WSW,244,0.0,3.0,89,0.00,,---,0.00,VWS V14.01,2013-01-29 10:30:00,
2013-01-29 05:32:00,36.8,33.9,30.05,WSW,244,0.0,2.0,89,0.00,,---,0.00,VWS V14.01,2013-01-29 10:32:00,
2013-01-29 05:37:00,36.8,33.9,30.06,WSW,244,2.0,3.0,89,0.00,,---,0.00,VWS V14.01,2013-01-29 10:37:00,
2013-01-29 05:42:00,36.9,34.0,30.06,WSW,244,0.0,3.0,89,0.00,,---,0.00,VWS V14.01,2013-01-29 10:42:00,
2013-01-29 05:45:00,36.9,34.0,30.06,WSW,244,0.0,3.0,89,0.00,,---,0.00,VWS V14.01,2013-01-29 10:45:00,
2013-01-29 05:47:00,37.0,34.1,30.06,WSW,244,0.0,1.0,89,0.00,,---,0.00,VWS V14.01,2013-01-29 10:47:00,
2013-01-29 05:52:00,37.0,34.1,30.06,WSW,244,2.0,3.0,89,0.00,,---,0.00,VWS V14.01,2013-01-29 10:52:00,
2013-01-29 05:57:00,37.0,34.1,30.06,WSW,244,0.0,3.0,89,0.00,,---,0.00,VWS V14.01,2013-01-29 10:57:00,
2013-01-29 06:00:00,37.0,34.1,30.06,WSW,244,0.0,3.0,89,0.00,,---,0.00,VWS V14.01,2013-01-29 11:00:00,
2013-01-29 06:02:00,37.0,34.1,30.06,WSW,244,0.0,0.0,89,0.00,,---,0.00,VWS V14.01,2013-01-29 11:02:00,
2013-01-29 06:07:00,37.1,34.2,30.06,WSW,244,0.0,1.0,89,0.00,,---,0.00,VWS V14.01,2013-01-29 11:07:00,
2013-01-29 06:12:00,37.1,34.2,30.06,WSW,244,0.0,1.0,89,0.00,,---,0.00,VWS V14.01,2013-01-29 11:12:00,
2013-01-29 06:15:00,37.2,34.3,30.06,WSW,244,0.0,1.0,89,0.00,,---,0.00,VWS V14.01,2013-01-29 11:15:00,
2013-01-29 06:17:00,37.2,34.3,30.06,WSW,244,0.0,0.0,89,0.00,,---,0.00,VWS V14.01,2013-01-29 11:17:00,
2013-01-29 06:22:00,37.3,34.4,30.07,WSW,244,0.0,1.0,89,0.00,,---,0.00,VWS V14.01,2013-01-29 11:22:00,
2013-01-29 06:27:00,37.1,34.2,30.07,WSW,244,0.0,1.0,89,0.00,,---,0.00,VWS V14.01,2013-01-29 11:27:00,
2013-01-29 06:30:00,37.1,34.2,30.07,WSW,244,0.0,1.0,89,0.00,,---,0.00,VWS V14.01,2013-01-29 11:30:00,
2013-01-29 06:33:00,37.2,34.3,30.08,WSW,244,2.0,2.0,89,0.00,,---,0.00,VWS V14.01,2013-01-29 11:33:00,
2013-01-29 06:38:00,37.3,34.4,30.08,WSW,244,0.0,2.0,89,0.00,,---,0.00,VWS V14.01,2013-01-29 11:38:00,
2013-01-29 06:43:00,37.3,34.4,30.08,WSW,244,0.0,2.0,89,0.00,,---,0.00,VWS V14.01,2013-01-29 11:43:00,
2013-01-29 06:45:00,37.3,34.4,30.08,WSW,244,0.0,2.0,89,0.00,,---,0.00,VWS V14.01,2013-01-29 11:45:00,
2013-01-29 06:48:00,37.1,34.2,30.08,WSW,244,0.0,0.0,89,0.00,,---,0.00,VWS V14.01,2013-01-29 11:48:00,
2013-01-29 06:53:00,37.0,34.1,30.08,WSW,244,0.0,0.0,89,0.00,,---,0.00,VWS V14.01,2013-01-29 11:53:00,
2013-01-29 06:58:00,37.0,34.1,30.09,WSW,244,0.0,0.0,89,0.00,,---,0.00,VWS V14.01,2013-01-29 11:58:00,
2013-01-29 07:00:00,36.9,34.0,30.09,WSW,244,0.0,0.0,89,0.00,,---,0.00,VWS V14.01,2013-01-29 12:00:00,
2013-01-29 07:03:00,36.9,34.0,30.09,WSW,244,0.0,0.0,89,0.00,,---,0.00,VWS V14.01,2013-01-29 12:03:00,
2013-01-29 07:08:00,37.0,34.1,30.09,WSW,244,0.0,0.0,89,0.00,,---,0.00,VWS V14.01,2013-01-29 12:08:00,
2013-01-29 07:13:00,36.9,34.0,30.08,WSW,244,0.0,0.0,89,0.00,,---,0.00,VWS V14.01,2013-01-29 12:13:00,
2013-01-29 07:15:00,36.9,34.0,30.09,WSW,244,0.0,0.0,89,0.00,,---,0.00,VWS V14.01,2013-01-29 12:15:00,
2013-01-29 07:18:00,37.0,34.1,30.09,WSW,244,0.0,0.0,89,0.00,,---,0.00,VWS V14.01,2013-01-29 12:18:00,
2013-01-29 07:23:00,37.0,34.1,30.09,WSW,244,0.0,0.0,89,0.00,,---,0.00,VWS V14.01,2013-01-29 12:23:00,
2013-01-29 07:28:00,36.8,33.9,30.10,WSW,244,0.0,3.0,89,0.00,,---,0.00,VWS V14.01,2013-01-29 12:28:00,
2013-01-29 07:30:00,36.6,33.7,30.10,WSW,244,0.0,3.0,89,0.00,,---,0.00,VWS V14.01,2013-01-29 12:30:00,
2013-01-29 07:33:00,36.6,33.7,30.10,WSW,244,0.0,2.0,89,0.00,,---,0.00,VWS V14.01,2013-01-29 12:33:00,
2013-01-29 07:39:00,37.0,34.1,30.10,WSW,244,0.0,2.0,89,0.00,,---,0.00,VWS V14.01,2013-01-29 12:39:00,
2013-01-29 07:44:00,37.3,34.4,30.10,WSW,244,0.0,2.0,89,0.00,,---,0.00,VWS V14.01,2013-01-29 12:44:00,
2013-01-29 07:45:00,37.5,34.6,30.09,WSW,244,0.0,2.0,89,0.00,,---,0.00,VWS V14.01,2013-01-29 12:45:00,
2013-01-29 07:49:00,37.7,34.8,30.10,SW,223,0.0,1.0,89,0.00,,---,0.00,VWS V14.01,2013-01-29 12:49:00,
2013-01-29 07:54:00,37.7,34.8,30.10,SW,223,0.0,1.0,89,0.00,,---,0.00,VWS V14.01,2013-01-29 12:54:00,
2013-01-29 07:59:00,37.7,34.8,30.10,SW,223,0.0,1.0,89,0.00,,---,0.00,VWS V14.01,2013-01-29 12:59:00,
2013-01-29 08:00:00,37.5,34.6,30.10,SW,223,0.0,1.0,89,0.00,,---,0.00,VWS V14.01,2013-01-29 13:00:00,
2013-01-29 08:04:00,37.5,34.6,30.10,SW,223,0.0,0.0,89,0.00,,---,0.00,VWS V14.01,2013-01-29 13:04:00,
2013-01-29 08:09:00,37.8,34.9,30.10,SW,223,0.0,0.0,89,0.00,,---,0.00,VWS V14.01,2013-01-29 13:09:00,
2013-01-29 08:14:00,38.1,35.2,30.10,SW,223,0.0,0.0,89,0.00,,---,0.00,VWS V14.01,2013-01-29 13:14:00,
2013-01-29 08:15:00,38.2,35.2,30.10,SW,223,0.0,0.0,89,0.00,,---,0.00,VWS V14.01,2013-01-29 13:15:00,
2013-01-29 08:19:00,38.2,35.2,30.11,SW,223,0.0,0.0,89,0.00,,---,0.00,VWS V14.01,2013-01-29 13:19:00,
2013-01-29 08:24:00,38.4,35.5,30.10,SW,223,0.0,0.0,89,0.00,,---,0.00,VWS V14.01,2013-01-29 13:24:00,
2013-01-29 08:29:00,38.7,35.7,30.10,SW,223,0.0,0.0,89,0.00,,---,0.00,VWS V14.01,2013-01-29 13:29:00,
2013-01-29 08:30:00,38.6,35.7,30.10,SW,223,0.0,0.0,89,0.00,,---,0.00,VWS V14.01,2013-01-29 13:30:00,
2013-01-29 08:34:00,38.7,35.7,30.10,SSE,162,0.0,0.0,89,0.00,,---,0.00,VWS V14.01,2013-01-29 13:34:00,
2013-01-29 08:39:00,38.9,36.2,30.11,SSE,162,0.0,0.0,90,0.00,,---,0.00,VWS V14.01,2013-01-29 13:39:00,
2013-01-29 08:44:00,39.1,36.1,30.11,SSE,162,0.0,0.0,89,0.00,,---,0.00,VWS V14.01,2013-01-29 13:44:00,
2013-01-29 08:45:00,39.2,36.2,30.11,SSE,162,0.0,0.0,89,0.00,,---,0.00,VWS V14.01,2013-01-29 13:45:00,
2013-01-29 08:49:00,39.4,36.4,30.11,SSE,162,0.0,0.0,89,0.00,,---,0.00,VWS V14.01,2013-01-29 13:49:00,
2013-01-29 08:54:00,39.7,37.0,30.11,SSE,162,0.0,0.0,90,0.00,,---,0.00,VWS V14.01,2013-01-29 13:54:00,
2013-01-29 08:59:00,40.0,37.0,30.11,SSE,162,0.0,0.0,89,0.00,,---,0.00,VWS V14.01,2013-01-29 13:59:00,
2013-01-29 09:00:00,40.0,37.0,30.11,SSE,162,1.0,1.0,89,0.00,,---,0.00,VWS V14.01,2013-01-29 14:00:00,
2013-01-29 09:04:00,40.2,37.5,30.11,SSE,162,0.0,2.0,90,0.00,,---,0.00,VWS V14.01,2013-01-29 14:04:00,
2013-01-29 09:09:00,40.4,37.4,30.11,SSE,162,0.0,2.0,89,0.00,,---,0.00,VWS V14.01,2013-01-29 14:09:00,
2013-01-29 09:14:00,40.5,37.5,30.11,SSE,162,0.0,2.0,89,0.00,,---,0.00,VWS V14.01,2013-01-29 14:14:00,
2013-01-29 09:15:00,40.6,37.6,30.11,SSE,162,0.0,2.0,89,0.00,,---,0.00,VWS V14.01,2013-01-29 14:15:00,
2013-01-29 09:20:00,40.8,37.8,30.11,SSE,162,0.0,0.0,89,0.00,,---,0.00,VWS V14.01,2013-01-29 14:20:00,
2013-01-29 09:25:00,41.1,38.1,30.11,SSE,162,0.0,0.0,89,0.00,,---,0.00,VWS V14.01,2013-01-29 14:25:00,
2013-01-29 09:30:00,41.6,38.6,30.11,SSE,162,0.0,0.0,89,0.00,,---,0.00,VWS V14.01,2013-01-29 14:30:00,
2013-01-29 09:35:00,42.2,39.2,30.11,NNW,348,0.0,1.0,89,0.00,,---,0.00,VWS V14.01,2013-01-29 14:35:00,
2013-01-29 09:40:00,42.9,39.6,30.12,NNW,348,1.0,2.0,88,0.00,,---,0.00,VWS V14.01,2013-01-29 14:40:00,
2013-01-29 09:45:00,43.5,40.2,30.12,NNW,348,0.0,2.0,88,0.00,,---,0.00,VWS V14.01,2013-01-29 14:45:00,
2013-01-29 09:50:00,44.2,40.6,30.12,NNW,348,0.0,3.0,87,0.00,,---,0.00,VWS V14.01,2013-01-29 14:50:00,
2013-01-29 09:55:00,44.9,41.0,30.12,NNW,348,0.0,3.0,86,0.00,,---,0.00,VWS V14.01,2013-01-29 14:55:00,
2013-01-29 10:00:00,45.6,41.4,30.13,NNW,348,0.0,3.0,85,0.00,,---,0.00,VWS V14.01,2013-01-29 15:00:00,
2013-01-29 10:05:00,46.1,41.5,30.13,NNW,348,0.0,0.0,84,0.00,,---,0.00,VWS V14.01,2013-01-29 15:05:00,
2013-01-29 10:10:00,46.4,41.2,30.13,NNW,348,0.0,2.0,82,0.00,,---,0.00,VWS V14.01,2013-01-29 15:10:00,
2013-01-29 10:15:00,46.7,41.2,30.13,NW,313,2.0,4.0,81,0.00,,---,0.00,VWS V14.01,2013-01-29 15:15:00,
2013-01-29 10:20:00,46.7,40.9,30.13,NW,306,0.0,4.0,80,0.00,,---,0.00,VWS V14.01,2013-01-29 15:20:00,
2013-01-29 10:25:00,46.9,41.1,30.13,NW,306,0.0,4.0,80,0.00,,---,0.00,VWS V14.01,2013-01-29 15:25:00,
2013-01-29 10:30:00,47.2,41.4,30.12,NW,306,0.0,4.0,80,0.00,,---,0.00,VWS V14.01,2013-01-29 15:30:00,
2013-01-29 10:36:00,47.5,41.3,30.12,NW,306,3.0,3.0,79,0.00,,---,0.00,VWS V14.01,2013-01-29 15:36:00,
2013-01-29 10:41:00,47.8,41.3,30.12,NW,306,0.0,3.0,78,0.00,,---,0.00,VWS V14.01,2013-01-29 15:41:00,
2013-01-29 10:45:00,48.3,41.8,30.12,NW,306,3.0,3.0,78,0.00,,---,0.00,VWS V14.01,2013-01-29 15:45:00,
2013-01-29 10:46:00,48.3,41.8,30.12,NW,306,0.0,3.0,78,0.00,,---,0.00,VWS V14.01,2013-01-29 15:46:00,
2013-01-29 10:51:00,48.5,42.0,30.12,NW,306,1.0,3.0,78,0.00,,---,0.00,VWS V14.01,2013-01-29 15:51:00,
2013-01-29 10:56:00,48.5,41.6,30.12,NW,306,1.0,3.0,77,0.00,,---,0.00,VWS V14.01,2013-01-29 15:56:00,
2013-01-29 11:00:00,48.7,41.8,30.12,NW,306,1.0,3.0,77,0.00,,---,0.00,VWS V14.01,2013-01-29 16:00:00,
2013-01-29 11:01:00,48.7,41.8,30.12,NW,306,1.0,3.0,77,0.00,,---,0.00,VWS V14.01,2013-01-29 16:01:00,
2013-01-29 11:06:00,48.8,41.6,30.12,WNW,293,0.0,4.0,76,0.00,,---,0.00,VWS V14.01,2013-01-29 16:06:00,
2013-01-29 11:11:00,49.0,41.8,30.11,WNW,293,0.0,4.0,76,0.00,,---,0.00,VWS V14.01,2013-01-29 16:11:00,
2013-01-29 11:15:00,49.2,41.6,30.11,SSW,192,0.0,4.0,75,0.00,,---,0.00,VWS V14.01,2013-01-29 16:15:00,
2013-01-29 11:16:00,49.2,41.3,30.11,SSW,192,0.0,0.0,74,0.00,,---,0.00,VWS V14.01,2013-01-29 16:16:00,
2013-01-29 11:21:00,49.6,41.7,30.10,SSW,192,0.0,0.0,74,0.00,,---,0.00,VWS V14.01,2013-01-29 16:21:00,
2013-01-29 11:26:00,50.4,42.4,30.10,SSW,192,0.0,1.0,74,0.00,,---,0.00,VWS V14.01,2013-01-29 16:26:00,
2013-01-29 11:30:00,51.1,43.1,30.09,ESE,110,0.0,4.0,74,0.00,,---,0.00,VWS V14.01,2013-01-29 16:30:00,
2013-01-29 11:31:00,51.1,43.1,30.09,ESE,110,1.0,1.0,74,0.00,,---,0.00,VWS V14.01,2013-01-29 16:31:00,
2013-01-29 11:36:00,51.1,42.0,30.09,ESE,112,1.0,5.0,71,0.00,,---,0.00,VWS V14.01,2013-01-29 16:36:00,
2013-01-29 11:41:00,51.4,42.3,30.09,ESE,112,0.0,5.0,71,0.00,,---,0.00,VWS V14.01,2013-01-29 16:41:00,
2013-01-29 11:45:00,51.7,42.6,30.09,ESE,112,2.0,5.0,71,0.00,,---,0.00,VWS V14.01,2013-01-29 16:45:00,
2013-01-29 11:46:00,51.7,42.6,30.09,ESE,116,1.0,3.0,71,0.00,,---,0.00,VWS V14.01,2013-01-29 16:46:00,
2013-01-29 11:52:00,52.0,42.5,30.09,SE,126,0.0,3.0,70,0.00,,---,0.00,VWS V14.01,2013-01-29 16:52:00,
2013-01-29 11:57:00,52.4,42.9,30.09,SE,132,0.0,3.0,70,0.00,,---,0.00,VWS V14.01,2013-01-29 16:57:00,
2013-01-29 12:00:00,52.4,42.5,30.09,SE,130,0.0,3.0,69,0.00,,---,0.00,VWS V14.01,2013-01-29 17:00:00,
2013-01-29 12:02:00,52.4,42.5,30.10,SE,140,0.0,0.0,69,0.00,,---,0.00,VWS V14.01,2013-01-29 17:02:00,
2013-01-29 12:07:00,52.7,42.5,30.10,SE,140,0.0,1.0,68,0.00,,---,0.00,VWS V14.01,2013-01-29 17:07:00,
2013-01-29 12:12:00,53.0,42.3,30.09,SW,227,0.0,4.0,67,0.00,,---,0.00,VWS V14.01,2013-01-29 17:12:00,
2013-01-29 12:15:00,53.4,42.7,30.09,SW,227,0.0,4.0,67,0.00,,---,0.00,VWS V14.01,2013-01-29 17:15:00,
2013-01-29 12:17:00,53.5,42.4,30.10,SW,227,0.0,3.0,66,0.00,,---,0.00,VWS V14.01,2013-01-29 17:17:00,
2013-01-29 12:22:00,53.0,41.6,30.09,SW,229,0.0,3.0,65,0.00,,---,0.00,VWS V14.01,2013-01-29 17:22:00,
2013-01-29 12:27:00,52.9,42.3,30.09,SW,223,0.0,3.0,67,0.00,,---,0.00,VWS V14.01,2013-01-29 17:27:00,
2013-01-29 12:30:00,52.9,42.3,30.09,SW,222,3.0,3.0,67,0.00,,---,0.00,VWS V14.01,2013-01-29 17:30:00,
2013-01-29 12:32:00,52.8,42.2,30.09,SW,219,3.0,4.0,67,0.00,,---,0.00,VWS V14.01,2013-01-29 17:32:00,
2013-01-29 12:37:00,52.8,42.2,30.09,SW,218,3.0,4.0,67,0.00,,---,0.00,VWS V14.01,2013-01-29 17:37:00,
2013-01-29 12:42:00,52.6,42.0,30.09,SW,218,0.0,4.0,67,0.00,,---,0.00,VWS V14.01,2013-01-29 17:42:00,
2013-01-29 12:45:00,52.6,42.0,30.09,SW,218,0.0,4.0,67,0.00,,---,0.00,VWS V14.01,2013-01-29 17:45:00,
2013-01-29 12:47:00,52.6,42.3,30.09,SW,218,0.0,0.0,68,0.00,,---,0.00,VWS V14.01,2013-01-29 17:47:00,
2013-01-29 12:52:00,52.8,42.5,30.09,South,180,3.0,4.0,68,0.00,,---,0.00,VWS V14.01,2013-01-29 17:52:00,
2013-01-29 12:57:00,52.6,42.3,30.09,South,178,3.0,5.0,68,0.00,,---,0.00,VWS V14.01,2013-01-29 17:57:00,
2013-01-29 13:00:00,52.4,42.2,30.08,SSE,161,2.0,5.0,68,0.00,,---,0.00,VWS V14.01,2013-01-29 18:00:00,
2013-01-29 13:03:00,52.3,42.1,30.08,SSE,161,0.0,3.0,68,0.00,,---,0.00,VWS V14.01,2013-01-29 18:03:00,
2013-01-29 13:08:00,52.4,42.5,30.08,SSE,161,4.0,4.0,69,0.00,,---,0.00,VWS V14.01,2013-01-29 18:08:00,
2013-01-29 13:13:00,52.2,42.0,30.08,SSE,148,0.0,5.0,68,0.00,,---,0.00,VWS V14.01,2013-01-29 18:13:00,
2013-01-29 13:15:00,52.1,41.5,30.08,SSE,154,3.0,6.0,67,0.00,,---,0.00,VWS V14.01,2013-01-29 18:15:00,
2013-01-29 13:18:00,51.9,41.3,30.08,SE,145,5.0,6.0,67,0.00,,---,0.00,VWS V14.01,2013-01-29 18:18:00,
2013-01-29 13:23:00,52.1,41.9,30.08,SSW,201,3.0,6.0,68,0.00,,---,0.00,VWS V14.01,2013-01-29 18:23:00,
2013-01-29 13:28:00,52.2,42.0,30.08,SSW,211,0.0,6.0,68,0.00,,---,0.00,VWS V14.01,2013-01-29 18:28:00,
2013-01-29 13:30:00,52.3,42.1,30.08,SSW,196,4.0,6.0,68,0.00,,---,0.00,VWS V14.01,2013-01-29 18:30:00,
2013-01-29 13:33:00,52.2,41.6,30.08,SSE,157,6.0,6.0,67,0.00,,---,0.00,VWS V14.01,2013-01-29 18:33:00,
2013-01-29 13:38:00,51.5,40.9,30.07,SSE,148,6.0,9.0,67,0.00,,---,0.00,VWS V14.01,2013-01-29 18:38:00,
2013-01-29 13:43:00,49.5,39.4,30.08,South,176,7.0,11.0,68,0.00,,---,0.00,VWS V14.01,2013-01-29 18:43:00,
2013-01-29 13:45:00,48.7,39.4,30.08,SE,143,6.0,11.0,70,0.00,,---,0.00,VWS V14.01,2013-01-29 18:45:00,
2013-01-29 13:48:00,48.3,39.3,30.08,SE,127,7.0,9.0,71,0.00,,---,0.00,VWS V14.01,2013-01-29 18:48:00,
2013-01-29 13:53:00,47.7,39.1,30.07,SE,130,6.0,9.0,72,0.00,,---,0.00,VWS V14.01,2013-01-29 18:53:00,
2013-01-29 13:58:00,47.4,39.2,30.07,SE,134,3.0,9.0,73,0.00,,---,0.00,VWS V14.01,2013-01-29 18:58:00,
2013-01-29 14:00:00,47.4,39.2,30.07,SE,140,8.0,10.0,73,0.00,,---,0.00,VWS V14.01,2013-01-29 19:00:00,
2013-01-29 14:03:00,46.9,38.7,30.08,SE,133,7.0,9.0,73,0.00,,---,0.00,VWS V14.01,2013-01-29 19:03:00,
2013-01-29 14:08:00,46.4,38.6,30.08,SSE,149,3.0,9.0,74,0.00,,---,0.00,VWS V14.01,2013-01-29 19:08:00,
2013-01-29 14:13:00,46.0,38.5,30.08,SE,127,4.0,9.0,75,0.00,,---,0.00,VWS V14.01,2013-01-29 19:13:00,
2013-01-29 14:15:00,45.8,38.3,30.08,SE,128,5.0,9.0,75,0.00,,---,0.00,VWS V14.01,2013-01-29 19:15:00,
2013-01-29 14:18:00,45.7,38.6,30.08,SE,128,5.0,5.0,76,0.00,,---,0.00,VWS V14.01,2013-01-29 19:18:00,
2013-01-29 14:23:00,45.6,38.5,30.09,ESE,121,8.0,10.0,76,0.00,,---,0.00,VWS V14.01,2013-01-29 19:23:00,
2013-01-29 14:28:00,45.4,38.3,30.09,East,92,8.0,10.0,76,0.00,,---,0.00,VWS V14.01,2013-01-29 19:28:00,
2013-01-29 14:30:00,45.2,38.1,30.09,SE,134,7.0,12.0,76,0.00,,---,0.00,VWS V14.01,2013-01-29 19:30:00,
2013-01-29 14:33:00,45.1,38.3,30.09,SE,127,7.0,10.0,77,0.00,,---,0.00,VWS V14.01,2013-01-29 19:33:00,
2013-01-29 14:38:00,44.9,38.1,30.09,ESE,119,5.0,10.0,77,0.00,,---,0.00,VWS V14.01,2013-01-29 19:38:00,
2013-01-29 14:43:00,44.8,38.4,30.08,ESE,105,5.0,10.0,78,0.00,,---,0.00,VWS V14.01,2013-01-29 19:43:00,
2013-01-29 14:45:00,44.7,38.3,30.08,ENE,70,5.0,10.0,78,0.00,,---,0.00,VWS V14.01,2013-01-29 19:45:00,
2013-01-29 14:48:00,44.8,38.7,30.08,East,94,3.0,6.0,79,0.00,,---,0.00,VWS V14.01,2013-01-29 19:48:00,
2013-01-29 14:53:00,44.5,38.1,30.08,SE,142,10.0,12.0,78,0.00,,---,0.00,VWS V14.01,2013-01-29 19:53:00,
2013-01-29 14:59:00,44.0,37.9,30.08,East,92,7.0,12.0,79,0.00,,---,0.00,VWS V14.01,2013-01-29 19:59:00,
2013-01-29 15:00:00,43.9,37.8,30.07,ESE,111,4.0,12.0,79,0.00,,---,0.00,VWS V14.01,2013-01-29 20:00:00,
2013-01-29 15:02:00,43.9,37.8,30.07,ESE,102,7.0,8.0,79,0.00,,---,0.00,VWS V14.01,2013-01-29 20:02:00,
2013-01-29 15:07:00,43.9,38.1,30.08,ESE,109,4.0,8.0,80,0.00,,---,0.00,VWS V14.01,2013-01-29 20:07:00,
2013-01-29 15:12:00,43.8,38.0,30.08,ESE,111,3.0,9.0,80,0.00,,---,0.00,VWS V14.01,2013-01-29 20:12:00,
2013-01-29 15:15:00,44.0,38.2,30.08,ESE,105,3.0,9.0,80,0.00,,---,0.00,VWS V14.01,2013-01-29 20:15:00,
2013-01-29 15:17:00,44.0,38.2,30.08,ESE,117,0.0,5.0,80,0.00,,---,0.00,VWS V14.01,2013-01-29 20:17:00,
2013-01-29 15:22:00,44.0,38.2,30.08,East,101,3.0,7.0,80,0.00,,---,0.00,VWS V14.01,2013-01-29 20:22:00,
2013-01-29 15:27:00,43.9,38.1,30.08,ESE,109,4.0,8.0,80,0.00,,---,0.00,VWS V14.01,2013-01-29 20:27:00,
2013-01-29 15:30:00,43.9,38.1,30.08,East,97,5.0,8.0,80,0.00,,---,0.00,VWS V14.01,2013-01-29 20:30:00,
2013-01-29 15:32:00,43.9,38.1,30.08,East,98,5.0,6.0,80,0.00,,---,0.00,VWS V14.01,2013-01-29 20:32:00,
2013-01-29 15:38:00,43.8,38.0,30.08,East,86,3.0,7.0,80,0.00,,---,0.00,VWS V14.01,2013-01-29 20:38:00,
2013-01-29 15:43:00,43.5,37.8,30.08,ESE,111,5.0,11.0,80,0.00,,---,0.00,VWS V14.01,2013-01-29 20:43:00,
2013-01-29 15:45:00,43.4,38.0,30.08,SE,126,3.0,11.0,81,0.00,,---,0.00,VWS V14.01,2013-01-29 20:45:00,
2013-01-29 15:48:00,43.4,38.0,30.09,SE,125,4.0,6.0,81,0.00,,---,0.00,VWS V14.01,2013-01-29 20:48:00,
2013-01-29 15:53:00,43.3,37.9,30.09,ENE,78,4.0,8.0,81,0.00,,---,0.00,VWS V14.01,2013-01-29 20:53:00,
2013-01-29 15:58:00,43.3,37.9,30.09,ESE,103,4.0,8.0,81,0.00,,---,0.00,VWS V14.01,2013-01-29 20:58:00,
2013-01-29 16:00:00,43.3,37.9,30.09,SE,126,5.0,8.0,81,0.00,,---,0.00,VWS V14.01,2013-01-29 21:00:00,
2013-01-29 16:03:00,43.2,37.8,30.09,East,82,5.0,8.0,81,0.00,,---,0.00,VWS V14.01,2013-01-29 21:03:00,
2013-01-29 16:08:00,43.1,37.7,30.09,ENE,73,3.0,9.0,81,0.00,,---,0.00,VWS V14.01,2013-01-29 21:08:00,
2013-01-29 16:13:00,43.1,38.0,30.09,ESE,105,4.0,9.0,82,0.00,,---,0.00,VWS V14.01,2013-01-29 21:13:00,
2013-01-29 16:15:00,43.0,37.9,30.09,East,96,5.0,9.0,82,0.00,,---,0.00,VWS V14.01,2013-01-29 21:15:00,
2013-01-29 16:18:00,43.0,37.9,30.09,ENE,76,4.0,7.0,82,0.00,,---,0.00,VWS V14.01,2013-01-29 21:18:00,
2013-01-29 16:23:00,43.0,37.9,30.09,East,86,3.0,8.0,82,0.00,,---,0.00,VWS V14.01,2013-01-29 21:23:00,
2013-01-29 16:28:00,42.9,37.8,30.09,ENE,66,7.0,8.0,82,0.00,,---,0.00,VWS V14.01,2013-01-29 21:28:00,
2013-01-29 16:30:00,43.0,37.9,30.09,East,89,3.0,8.0,82,0.00,,---,0.00,VWS V14.01,2013-01-29 21:30:00,
2013-01-29 16:34:00,42.9,37.8,30.09,East,88,3.0,7.0,82,0.00,,---,0.00,VWS V14.01,2013-01-29 21:34:00,
2013-01-29 16:39:00,42.7,37.6,30.09,East,96,3.0,11.0,82,0.00,,---,0.00,VWS V14.01,2013-01-29 21:39:00,
2013-01-29 16:44:00,42.6,37.5,30.09,East,83,9.0,11.0,82,0.00,,---,0.00,VWS V14.01,2013-01-29 21:44:00,
2013-01-29 16:45:00,42.5,37.7,30.09,SE,129,6.0,11.0,83,0.00,,---,0.00,VWS V14.01,2013-01-29 21:45:00,
2013-01-29 16:49:00,42.6,37.8,30.09,ENE,65,5.0,8.0,83,0.00,,---,0.00,VWS V14.01,2013-01-29 21:49:00,
2013-01-29 16:54:00,42.5,37.7,30.09,East,86,5.0,8.0,83,0.00,,---,0.00,VWS V14.01,2013-01-29 21:54:00,
2013-01-29 16:59:00,42.5,37.7,30.09,ESE,115,9.0,9.0,83,0.00,,---,0.00,VWS V14.01,2013-01-29 21:59:00,
2013-01-29 17:00:00,42.5,37.7,30.09,ESE,107,2.0,10.0,83,0.00,,---,0.00,VWS V14.01,2013-01-29 22:00:00,
2013-01-29 17:04:00,42.4,37.6,30.09,East,93,3.0,11.0,83,0.00,,---,0.00,VWS V14.01,2013-01-29 22:04:00,
2013-01-29 17:09:00,42.3,37.5,30.09,East,101,3.0,11.0,83,0.00,,---,0.00,VWS V14.01,2013-01-29 22:09:00,
2013-01-29 17:14:00,42.4,37.6,30.08,ESE,114,4.0,11.0,83,0.00,,---,0.00,VWS V14.01,2013-01-29 22:14:00,
2013-01-29 17:15:00,42.3,37.5,30.08,East,91,3.0,11.0,83,0.00,,---,0.00,VWS V14.01,2013-01-29 22:15:00,
2013-01-29 17:19:00,42.4,37.9,30.09,East,80,2.0,6.0,84,0.00,,---,0.00,VWS V14.01,2013-01-29 22:19:00,
2013-01-29 17:24:00,42.4,37.9,30.09,ESE,123,0.0,7.0,84,0.00,,---,0.00,VWS V14.01,2013-01-29 22:24:00,
2013-01-29 17:29:00,42.5,38.0,30.09,East,89,7.0,7.0,84,0.00,,---,0.00,VWS V14.01,2013-01-29 22:29:00,
2013-01-29 17:30:00,42.4,37.9,30.09,ESE,118,7.0,9.0,84,0.00,,---,0.00,VWS V14.01,2013-01-29 22:30:00,
2013-01-29 17:34:00,42.4,37.9,30.11,ESE,111,5.0,7.0,84,0.00,,---,0.00,VWS V14.01,2013-01-29 22:34:00,
2013-01-29 17:39:00,42.4,37.9,30.10,SE,126,5.0,10.0,84,0.00,,---,0.00,VWS V14.01,2013-01-29 22:39:00,
2013-01-29 17:44:00,42.4,37.9,30.10,East,82,5.0,10.0,84,0.00,,---,0.00,VWS V14.01,2013-01-29 22:44:00,
2013-01-29 17:45:00,42.4,37.9,30.10,ESE,105,2.0,10.0,84,0.00,,---,0.00,VWS V14.01,2013-01-29 22:45:00,
2013-01-29 17:49:00,42.3,37.8,30.10,ESE,113,3.0,11.0,84,0.00,,---,0.00,VWS V14.01,2013-01-29 22:49:00,
2013-01-29 17:55:00,42.3,37.8,30.10,ESE,116,4.0,11.0,84,0.00,,---,0.00,VWS V14.01,2013-01-29 22:55:00,
2013-01-29 18:00:00,42.3,37.8,30.09,East,100,6.0,11.0,84,0.00,,---,0.00,VWS V14.01,2013-01-29 23:00:00,
2013-01-29 18:05:00,42.2,37.7,30.09,East,93,5.0,11.0,84,0.00,,---,0.00,VWS V14.01,2013-01-29 23:05:00,
2013-01-29 18:10:00,42.2,37.7,30.10,SE,144,1.0,11.0,84,0.00,,---,0.00,VWS V14.01,2013-01-29 23:10:00,
2013-01-29 18:15:00,42.3,38.1,30.11,ESE,117,2.0,11.0,85,0.00,,---,0.00,VWS V14.01,2013-01-29 23:15:00,
2013-01-29 18:20:00,42.2,38.0,30.12,ENE,72,5.0,9.0,85,0.00,,---,0.00,VWS V14.01,2013-01-29 23:20:00,
2013-01-29 18:25:00,42.2,38.0,30.11,ENE,63,3.0,10.0,85,0.00,,---,0.00,VWS V14.01,2013-01-29 23:25:00,
2013-01-29 18:30:00,42.1,37.9,30.11,East,94,5.0,10.0,85,0.00,,---,0.00,VWS V14.01,2013-01-29 23:30:00,
2013-01-29 18:35:00,42.2,38.0,30.11,ESE,106,2.0,10.0,85,0.00,,---,0.00,VWS V14.01,2013-01-29 23:35:00,
2013-01-29 18:40:00,42.1,37.9,30.11,SE,146,2.0,11.0,85,0.00,,---,0.00,VWS V14.01,2013-01-29 23:40:00,
2013-01-29 18:45:00,42.2,38.0,30.12,ESE,119,3.0,11.0,85,0.00,,---,0.00,VWS V14.01,2013-01-29 23:45:00,
2013-01-29 18:50:00,42.2,38.0,30.12,ESE,109,3.0,4.0,85,0.00,,---,0.00,VWS V14.01,2013-01-29 23:50:00,
2013-01-29 18:55:00,42.2,38.0,30.12,ESE,107,4.0,8.0,85,0.00,,---,0.00,VWS V14.01,2013-01-29 23:55:00,
2013-01-29 19:00:00,42.3,38.1,30.12,SE,133,6.0,8.0,85,0.00,,---,0.00,VWS V14.01,2013-01-30 00:00:00,
2013-01-29 19:01:00,42.3,38.1,30.12,SSE,148,5.0,8.0,85,0.00,,---,0.00,VWS V14.01,2013-01-30 00:01:00,
2013-01-29 19:06:00,42.2,38.0,30.11,SE,131,4.0,7.0,85,0.00,,---,0.00,VWS V14.01,2013-01-30 00:06:00,
2013-01-29 19:11:00,42.2,38.0,30.11,SE,130,4.0,8.0,85,0.00,,---,0.00,VWS V14.01,2013-01-30 00:11:00,
2013-01-29 19:15:00,42.3,38.1,30.11,East,96,7.0,8.0,85,0.00,,---,0.00,VWS V14.01,2013-01-30 00:15:00,
2013-01-29 19:16:00,42.3,38.1,30.11,ESE,109,5.0,7.0,85,0.00,,---,0.00,VWS V14.01,2013-01-30 00:16:00,
2013-01-29 19:21:00,42.3,38.1,30.11,SE,143,5.0,7.0,85,0.00,,---,0.00,VWS V14.01,2013-01-30 00:21:00,
2013-01-29 19:26:00,42.4,38.2,30.11,SE,136,4.0,8.0,85,0.00,,---,0.00,VWS V14.01,2013-01-30 00:26:00,
2013-01-29 19:30:00,42.3,38.1,30.10,SE,138,4.0,9.0,85,0.00,,---,0.00,VWS V14.01,2013-01-30 00:30:00,
2013-01-29 19:31:00,42.3,38.1,30.10,SE,140,4.0,4.0,85,0.00,,---,0.00,VWS V14.01,2013-01-30 00:31:00,
2013-01-29 19:36:00,42.3,38.1,30.10,SE,138,3.0,8.0,85,0.00,,---,0.00,VWS V14.01,2013-01-30 00:36:00,
2013-01-29 19:41:00,42.4,38.2,30.10,SSE,149,5.0,8.0,85,0.00,,---,0.00,VWS V14.01,2013-01-30 00:41:00,
2013-01-29 19:45:00,42.4,38.2,30.10,SE,142,0.0,10.0,85,0.00,,---,0.00,VWS V14.01,2013-01-30 00:45:00,
2013-01-29 19:46:00,42.4,38.2,30.10,SE,141,2.0,3.0,85,0.00,,---,0.00,VWS V14.01,2013-01-30 00:46:00,
2013-01-29 19:51:00,42.3,38.1,30.10,SE,132,4.0,7.0,85,0.00,,---,0.00,VWS V14.01,2013-01-30 00:51:00,
2013-01-29 19:56:00,42.2,38.0,30.10,SE,128,5.0,8.0,85,0.00,,---,0.00,VWS V14.01,2013-01-30 00:56:00,
2013-01-29 20:00:00,42.2,38.0,30.10,ESE,103,3.0,8.0,85,0.00,,---,0.00,VWS V14.01,2013-01-30 01:00:00,
2013-01-29 20:02:00,42.2,38.0,30.10,ESE,103,0.0,3.0,85,0.00,,---,0.00,VWS V14.01,2013-01-30 01:02:00,
2013-01-29 20:07:00,42.2,38.0,30.10,ESE,104,3.0,7.0,85,0.00,,---,0.00,VWS V14.01,2013-01-30 01:07:00,
2013-01-29 20:12:00,42.3,38.1,30.11,East,88,5.0,7.0,85,0.00,,---,0.00,VWS V14.01,2013-01-30 01:12:00,
2013-01-29 20:15:00,42.3,38.1,30.11,East,88,0.0,7.0,85,0.00,,---,0.00,VWS V14.01,2013-01-30 01:15:00,
2013-01-29 20:17:00,42.3,38.1,30.11,East,88,0.0,1.0,85,0.00,,---,0.00,VWS V14.01,2013-01-30 01:17:00,
2013-01-29 20:22:00,42.3,38.1,30.10,East,101,1.0,5.0,85,0.00,,---,0.00,VWS V14.01,2013-01-30 01:22:00,
2013-01-29 20:27:00,42.3,38.4,30.10,ESE,107,2.0,5.0,86,0.00,,---,0.00,VWS V14.01,2013-01-30 01:27:00,
2013-01-29 20:30:00,42.4,38.5,30.10,ESE,119,3.0,5.0,86,0.00,,---,0.00,VWS V14.01,2013-01-30 01:30:00,
2013-01-29 20:32:00,42.4,38.5,30.10,SE,124,2.0,4.0,86,0.00,,---,0.00,VWS V14.01,2013-01-30 01:32:00,
2013-01-29 20:37:00,42.4,38.5,30.10,ESE,123,3.0,5.0,86,0.00,,---,0.00,VWS V14.01,2013-01-30 01:37:00,
2013-01-29 20:42:00,42.3,38.4,30.10,East,95,0.0,6.0,86,0.00,,---,0.00,VWS V14.01,2013-01-30 01:42:00,
2013-01-29 20:45:00,42.3,38.4,30.11,East,94,0.0,6.0,86,0.00,,---,0.00,VWS V14.01,2013-01-30 01:45:00,
2013-01-29 20:47:00,42.3,38.1,30.10,East,94,0.0,0.0,85,0.00,,---,0.00,VWS V14.01,2013-01-30 01:47:00,
2013-01-29 20:52:00,42.3,38.1,30.10,East,94,0.0,3.0,85,0.00,,---,0.00,VWS V14.01,2013-01-30 01:52:00,
2013-01-29 20:57:00,42.3,38.1,30.09,ESE,112,3.0,5.0,85,0.00,,---,0.00,VWS V14.01,2013-01-30 01:57:00,
2013-01-29 21:00:00,42.2,38.3,30.09,ESE,117,1.0,5.0,86,0.00,,---,0.00,VWS V14.01,2013-01-30 02:00:00,
2013-01-29 21:02:00,42.2,38.3,30.09,ESE,117,0.0,0.0,86,0.00,,---,0.00,VWS V14.01,2013-01-30 02:02:00,
2013-01-29 21:07:00,42.2,38.3,30.09,East,85,5.0,5.0,86,0.00,,---,0.00,VWS V14.01,2013-01-30 02:07:00,
2013-01-29 21:12:00,42.2,38.3,30.10,East,84,1.0,5.0,86,0.00,,---,0.00,VWS V14.01,2013-01-30 02:12:00,
2013-01-29 21:15:00,42.2,38.3,30.09,East,84,0.0,5.0,86,0.00,,---,0.00,VWS V14.01,2013-01-30 02:15:00,
2013-01-29 21:17:00,42.2,38.3,30.09,East,84,0.0,0.0,86,0.00,,---,0.00,VWS V14.01,2013-01-30 02:17:00,
2013-01-29 21:22:00,42.2,38.3,30.09,East,90,1.0,3.0,86,0.00,,---,0.00,VWS V14.01,2013-01-30 02:22:00,
2013-01-29 21:27:00,42.2,38.3,30.09,East,90,0.0,3.0,86,0.00,,---,0.00,VWS V14.01,2013-01-30 02:27:00,
2013-01-29 21:30:00,42.2,38.3,30.09,East,90,0.0,3.0,86,0.00,,---,0.00,VWS V14.01,2013-01-30 02:30:00,
2013-01-29 21:32:00,42.2,38.3,30.09,East,90,0.0,0.0,86,0.00,,---,0.00,VWS V14.01,2013-01-30 02:32:00,
2013-01-29 21:37:00,42.2,38.3,30.09,East,90,0.0,1.0,86,0.00,,---,0.00,VWS V14.01,2013-01-30 02:37:00,
2013-01-29 21:42:00,42.1,38.2,30.08,East,90,2.0,2.0,86,0.00,,---,0.00,VWS V14.01,2013-01-30 02:42:00,
2013-01-29 21:45:00,42.1,38.2,30.08,East,90,0.0,3.0,86,0.00,,---,0.00,VWS V14.01,2013-01-30 02:45:00,
2013-01-29 21:47:00,42.1,38.2,30.08,East,90,0.0,0.0,86,0.00,,---,0.00,VWS V14.01,2013-01-30 02:47:00,
2013-01-29 21:52:00,42.1,38.2,30.08,East,90,0.0,2.0,86,0.00,,---,0.00,VWS V14.01,2013-01-30 02:52:00,
2013-01-29 21:57:00,42.0,38.1,30.08,East,90,0.0,2.0,86,0.00,,---,0.00,VWS V14.01,2013-01-30 02:57:00,
2013-01-29 22:00:00,41.9,38.0,30.08,East,90,0.0,2.0,86,0.00,,---,0.00,VWS V14.01,2013-01-30 03:00:00,
2013-01-29 22:03:00,41.9,38.0,30.08,East,90,0.0,0.0,86,0.00,,---,0.00,VWS V14.01,2013-01-30 03:03:00,
2013-01-29 22:08:00,41.9,38.0,30.08,East,90,0.0,0.0,86,0.00,,---,0.00,VWS V14.01,2013-01-30 03:08:00,
2013-01-29 22:13:00,42.0,38.1,30.08,East,90,0.0,1.0,86,0.00,,---,0.00,VWS V14.01,2013-01-30 03:13:00,
2013-01-29 22:15:00,41.9,38.0,30.08,East,90,0.0,1.0,86,0.00,,---,0.00,VWS V14.01,2013-01-30 03:15:00,
2013-01-29 22:18:00,41.9,38.0,30.07,East,90,0.0,0.0,86,0.00,,---,0.00,VWS V14.01,2013-01-30 03:18:00,
2013-01-29 22:23:00,42.0,38.1,30.07,East,90,0.0,0.0,86,0.00,,---,0.00,VWS V14.01,2013-01-30 03:23:00,
2013-01-29 22:28:00,42.0,38.1,30.07,East,90,0.0,0.0,86,0.00,,---,0.00,VWS V14.01,2013-01-30 03:28:00,
2013-01-29 22:30:00,42.0,38.1,30.07,East,90,0.0,0.0,86,0.00,,---,0.00,VWS V14.01,2013-01-30 03:30:00,
2013-01-29 22:33:00,42.0,38.1,30.07,East,90,0.0,1.0,86,0.00,,---,0.00,VWS V14.01,2013-01-30 03:33:00,
2013-01-29 22:38:00,42.0,38.4,30.07,East,90,0.0,1.0,87,0.00,,---,0.00,VWS V14.01,2013-01-30 03:38:00,
2013-01-29 22:43:00,42.0,38.4,30.07,East,90,0.0,1.0,87,0.00,,---,0.00,VWS V14.01,2013-01-30 03:43:00,
2013-01-29 22:45:00,42.0,38.4,30.07,East,90,0.0,2.0,87,0.00,,---,0.00,VWS V14.01,2013-01-30 03:45:00,
2013-01-29 22:48:00,42.0,38.4,30.07,East,90,0.0,0.0,87,0.00,,---,0.00,VWS V14.01,2013-01-30 03:48:00,
2013-01-29 22:53:00,42.0,38.1,30.07,East,90,0.0,0.0,86,0.00,,---,0.00,VWS V14.01,2013-01-30 03:53:00,
2013-01-29 22:58:00,41.8,37.9,30.07,East,90,0.0,0.0,86,0.00,,---,0.00,VWS V14.01,2013-01-30 03:58:00,
2013-01-29 23:00:00,41.8,38.2,30.07,ENE,74,0.0,4.0,87,0.00,,---,0.00,VWS V14.01,2013-01-30 04:00:00,
2013-01-29 23:03:00,41.8,38.2,30.07,ENE,74,0.0,3.0,87,0.00,,---,0.00,VWS V14.01,2013-01-30 04:03:00,
2013-01-29 23:08:00,41.8,38.2,30.07,ENE,74,0.0,4.0,87,0.00,,---,0.00,VWS V14.01,2013-01-30 04:08:00,
2013-01-29 23:13:00,41.7,38.1,30.07,ENE,74,0.0,4.0,87,0.00,,---,0.00,VWS V14.01,2013-01-30 04:13:00,
2013-01-29 23:15:00,41.7,38.1,30.08,ENE,74,0.0,4.0,87,0.00,,---,0.00,VWS V14.01,2013-01-30 04:15:00,
2013-01-29 23:18:00,41.6,38.0,30.08,ENE,74,0.0,2.0,87,0.00,,---,0.00,VWS V14.01,2013-01-30 04:18:00,
2013-01-29 23:23:00,41.7,38.1,30.07,ENE,74,0.0,2.0,87,0.00,,---,0.00,VWS V14.01,2013-01-30 04:23:00,
2013-01-29 23:28:00,41.8,38.2,30.07,ENE,74,0.0,2.0,87,0.00,,---,0.00,VWS V14.01,2013-01-30 04:28:00,
2013-01-29 23:30:00,41.8,38.2,30.07,ENE,74,1.0,2.0,87,0.00,,---,0.00,VWS V14.01,2013-01-30 04:30:00,
2013-01-29 23:33:00,41.8,38.2,30.07,ENE,74,0.0,3.0,87,0.00,,---,0.00,VWS V14.01,2013-01-30 04:33:00,
2013-01-29 23:38:00,41.8,38.2,30.07,ENE,74,0.0,3.0,87,0.00,,---,0.00,VWS V14.01,2013-01-30 04:38:00,
2013-01-29 23:43:00,41.9,38.3,30.06,East,81,1.0,6.0,87,0.00,,---,0.00,VWS V14.01,2013-01-30 04:43:00,
2013-01-29 23:45:00,41.9,38.3,30.06,East,80,2.0,6.0,87,0.00,,---,0.00,VWS V14.01,2013-01-30 04:45:00,
2013-01-29 23:48:00,41.9,38.3,30.06,ENE,67,2.0,6.0,87,0.00,,---,0.00,VWS V14.01,2013-01-30 04:48:00,
2013-01-29 23:53:00,41.9,38.6,30.06,ENE,63,5.0,8.0,88,0.00,,---,0.00,VWS V14.01,2013-01-30 04:53:00,
2013-01-29 23:58:00,41.9,38.6,30.06,ENE,74,4.0,8.0,88,0.00,,---,0.00,VWS V14.01,2013-01-30 04:58:00,